sensor_id;sensor_type;location;lat;lon;timestamp;P1;durP1;ratioP1;P2;durP2;ratioP2
66012;SDS011;52783;50.502;8.190;2022-09-21T00:00:39;11.52;;;4.63;;
66012;SDS011;52783;50.502;8.190;2022-09-21T00:03:05;6.57;;;4.65;;
66012;SDS011;52783;50.502;8.190;2022-09-21T00:05:31;5.50;;;3.40;;
66012;SDS011;52783;50.502;8.190;2022-09-21T00:08:00;8.70;;;3.63;;
66012;SDS011;52783;50.502;8.190;2022-09-21T00:10:27;4.63;;;3.28;;
66012;SDS011;52783;50.502;8.190;2022-09-21T00:12:53;4.72;;;3.25;;
66012;SDS011;52783;50.502;8.190;2022-09-21T00:15:20;3.92;;;3.13;;
66012;SDS011;52783;50.502;8.190;2022-09-21T00:17:46;9.60;;;3.60;;
66012;SDS011;52783;50.502;8.190;2022-09-21T00:20:12;7.72;;;3.10;;
66012;SDS011;52783;50.502;8.190;2022-09-21T00:22:39;6.65;;;3.80;;
66012;SDS011;52783;50.502;8.190;2022-09-21T00:25:05;5.53;;;3.30;;
66012;SDS011;52783;50.502;8.190;2022-09-21T00:27:32;5.03;;;3.15;;
66012;SDS011;52783;50.502;8.190;2022-09-21T00:29:59;7.18;;;2.85;;
66012;SDS011;52783;50.502;8.190;2022-09-21T00:32:26;2.90;;;2.60;;
66012;SDS011;52783;50.502;8.190;2022-09-21T00:34:55;7.68;;;2.88;;
66012;SDS011;52783;50.502;8.190;2022-09-21T00:37:21;6.07;;;2.88;;
66012;SDS011;52783;50.502;8.190;2022-09-21T00:39:47;6.50;;;2.83;;
66012;SDS011;52783;50.502;8.190;2022-09-21T00:42:16;3.03;;;2.50;;
66012;SDS011;52783;50.502;8.190;2022-09-21T00:44:58;8.88;;;2.65;;
66012;SDS011;52783;50.502;8.190;2022-09-21T00:50:07;5.35;;;2.78;;
66012;SDS011;52783;50.502;8.190;2022-09-21T00:52:36;5.05;;;3.22;;
66012;SDS011;52783;50.502;8.190;2022-09-21T00:57:37;5.10;;;3.00;;
66012;SDS011;52783;50.502;8.190;2022-09-21T01:00:04;4.30;;;3.05;;
66012;SDS011;52783;50.502;8.190;2022-09-21T01:02:33;6.85;;;3.38;;
66012;SDS011;52783;50.502;8.190;2022-09-21T01:04:59;11.63;;;3.22;;
66012;SDS011;52783;50.502;8.190;2022-09-21T01:07:27;5.22;;;3.40;;
66012;SDS011;52783;50.502;8.190;2022-09-21T01:09:56;4.63;;;3.08;;
66012;SDS011;52783;50.502;8.190;2022-09-21T01:31:40;76.30;;;10.45;;
66012;SDS011;52783;50.502;8.190;2022-09-21T01:34:26;64.63;;;14.75;;
66012;SDS011;52783;50.502;8.190;2022-09-21T01:36:57;54.50;;;13.23;;
66012;SDS011;52783;50.502;8.190;2022-09-21T01:39:29;52.25;;;12.07;;
66012;SDS011;52783;50.502;8.190;2022-09-21T01:41:59;83.10;;;11.10;;
66012;SDS011;52783;50.502;8.190;2022-09-21T01:44:27;102.90;;;11.75;;
66012;SDS011;52783;50.502;8.190;2022-09-21T01:46:57;71.70;;;12.30;;
66012;SDS011;52783;50.502;8.190;2022-09-21T01:49:28;44.03;;;12.90;;
66012;SDS011;52783;50.502;8.190;2022-09-21T01:52:03;57.92;;;9.98;;
66012;SDS011;52783;50.502;8.190;2022-09-21T01:54:38;58.67;;;8.65;;
66012;SDS011;52783;50.502;8.190;2022-09-21T01:57:14;56.75;;;9.20;;
66012;SDS011;52783;50.502;8.190;2022-09-21T02:00:02;27.77;;;9.50;;
66012;SDS011;52783;50.502;8.190;2022-09-21T02:02:31;50.25;;;9.02;;
66012;SDS011;52783;50.502;8.190;2022-09-21T02:05:20;42.67;;;9.23;;
66012;SDS011;52783;50.502;8.190;2022-09-21T02:07:48;31.65;;;7.07;;
66012;SDS011;52783;50.502;8.190;2022-09-21T02:10:17;35.65;;;6.68;;
66012;SDS011;52783;50.502;8.190;2022-09-21T02:12:47;29.83;;;5.95;;
66012;SDS011;52783;50.502;8.190;2022-09-21T02:15:15;41.28;;;5.88;;
66012;SDS011;52783;50.502;8.190;2022-09-21T02:17:46;19.10;;;5.55;;
66012;SDS011;52783;50.502;8.190;2022-09-21T02:20:30;15.38;;;5.03;;
66012;SDS011;52783;50.502;8.190;2022-09-21T02:25:40;8.90;;;5.38;;
66012;SDS011;52783;50.502;8.190;2022-09-21T02:31:25;9.38;;;4.65;;
66012;SDS011;52783;50.502;8.190;2022-09-21T02:36:49;21.98;;;5.40;;
66012;SDS011;52783;50.502;8.190;2022-09-21T02:39:32;17.95;;;6.50;;
66012;SDS011;52783;50.502;8.190;2022-09-21T02:42:04;41.90;;;6.60;;
66012;SDS011;52783;50.502;8.190;2022-09-21T02:44:49;63.17;;;7.25;;
66012;SDS011;52783;50.502;8.190;2022-09-21T02:47:20;30.38;;;7.10;;
66012;SDS011;52783;50.502;8.190;2022-09-21T02:49:51;75.57;;;7.97;;
66012;SDS011;52783;50.502;8.190;2022-09-21T02:52:18;31.67;;;7.10;;
66012;SDS011;52783;50.502;8.190;2022-09-21T02:54:46;27.17;;;7.65;;
66012;SDS011;52783;50.502;8.190;2022-09-21T02:57:15;23.58;;;7.10;;
66012;SDS011;52783;50.502;8.190;2022-09-21T02:59:43;16.83;;;7.63;;
66012;SDS011;52783;50.502;8.190;2022-09-21T03:02:09;16.40;;;5.78;;
66012;SDS011;52783;50.502;8.190;2022-09-21T03:04:36;21.98;;;4.97;;
66012;SDS011;52783;50.502;8.190;2022-09-21T03:10:27;26.92;;;3.40;;
66012;SDS011;52783;50.502;8.190;2022-09-21T03:12:55;13.52;;;3.03;;
66012;SDS011;52783;50.502;8.190;2022-09-21T03:15:23;8.55;;;3.10;;
66012;SDS011;52783;50.502;8.190;2022-09-21T03:17:51;22.33;;;3.30;;
66012;SDS011;52783;50.502;8.190;2022-09-21T03:20:17;13.32;;;3.22;;
66012;SDS011;52783;50.502;8.190;2022-09-21T03:22:42;19.17;;;3.92;;
66012;SDS011;52783;50.502;8.190;2022-09-21T03:25:08;9.93;;;3.63;;
66012;SDS011;52783;50.502;8.190;2022-09-21T03:27:36;9.93;;;3.30;;
66012;SDS011;52783;50.502;8.190;2022-09-21T03:30:01;10.52;;;3.20;;
66012;SDS011;52783;50.502;8.190;2022-09-21T03:32:27;12.27;;;3.58;;
66012;SDS011;52783;50.502;8.190;2022-09-21T03:34:53;6.50;;;3.70;;
66012;SDS011;52783;50.502;8.190;2022-09-21T03:37:18;15.88;;;3.22;;
66012;SDS011;52783;50.502;8.190;2022-09-21T03:39:44;10.73;;;3.28;;
66012;SDS011;52783;50.502;8.190;2022-09-21T03:42:11;27.38;;;4.10;;
66012;SDS011;52783;50.502;8.190;2022-09-21T03:44:38;18.00;;;3.55;;
66012;SDS011;52783;50.502;8.190;2022-09-21T03:47:05;14.13;;;3.63;;
66012;SDS011;52783;50.502;8.190;2022-09-21T03:49:30;24.00;;;3.90;;
66012;SDS011;52783;50.502;8.190;2022-09-21T03:51:56;8.70;;;3.38;;
66012;SDS011;52783;50.502;8.190;2022-09-21T03:54:23;24.27;;;3.83;;
66012;SDS011;52783;50.502;8.190;2022-09-21T03:56:49;18.77;;;3.75;;
66012;SDS011;52783;50.502;8.190;2022-09-21T03:59:15;9.65;;;3.72;;
66012;SDS011;52783;50.502;8.190;2022-09-21T04:01:41;30.48;;;3.83;;
66012;SDS011;52783;50.502;8.190;2022-09-21T04:04:07;11.75;;;4.22;;
66012;SDS011;52783;50.502;8.190;2022-09-21T04:06:33;17.00;;;3.75;;
66012;SDS011;52783;50.502;8.190;2022-09-21T04:08:58;12.10;;;4.35;;
66012;SDS011;52783;50.502;8.190;2022-09-21T04:11:27;7.97;;;4.72;;
66012;SDS011;52783;50.502;8.190;2022-09-21T04:13:53;6.53;;;4.50;;
66012;SDS011;52783;50.502;8.190;2022-09-21T04:16:22;15.60;;;4.57;;
66012;SDS011;52783;50.502;8.190;2022-09-21T04:18:48;12.93;;;4.00;;
66012;SDS011;52783;50.502;8.190;2022-09-21T04:21:15;11.55;;;4.15;;
66012;SDS011;52783;50.502;8.190;2022-09-21T04:23:45;44.40;;;3.97;;
66012;SDS011;52783;50.502;8.190;2022-09-21T04:26:17;19.23;;;4.18;;
66012;SDS011;52783;50.502;8.190;2022-09-21T04:28:45;61.63;;;4.50;;
66012;SDS011;52783;50.502;8.190;2022-09-21T04:31:11;50.72;;;4.85;;
66012;SDS011;52783;50.502;8.190;2022-09-21T04:33:36;33.83;;;4.75;;
66012;SDS011;52783;50.502;8.190;2022-09-21T04:36:02;109.13;;;5.65;;
66012;SDS011;52783;50.502;8.190;2022-09-21T04:38:29;131.23;;;6.45;;
66012;SDS011;52783;50.502;8.190;2022-09-21T04:40:56;177.55;;;9.55;;
66012;SDS011;52783;50.502;8.190;2022-09-21T04:43:21;90.53;;;4.88;;
66012;SDS011;52783;50.502;8.190;2022-09-21T04:45:47;184.70;;;9.18;;
66012;SDS011;52783;50.502;8.190;2022-09-21T04:48:13;91.30;;;6.65;;
66012;SDS011;52783;50.502;8.190;2022-09-21T04:50:38;68.82;;;5.00;;
66012;SDS011;52783;50.502;8.190;2022-09-21T04:53:04;155.82;;;6.75;;
66012;SDS011;52783;50.502;8.190;2022-09-21T04:55:29;187.40;;;7.10;;
66012;SDS011;52783;50.502;8.190;2022-09-21T04:57:55;93.20;;;5.40;;
66012;SDS011;52783;50.502;8.190;2022-09-21T05:00:21;217.98;;;7.93;;
66012;SDS011;52783;50.502;8.190;2022-09-21T05:02:47;223.07;;;8.07;;
66012;SDS011;52783;50.502;8.190;2022-09-21T05:05:12;157.30;;;5.40;;
66012;SDS011;52783;50.502;8.190;2022-09-21T05:07:38;191.27;;;5.90;;
66012;SDS011;52783;50.502;8.190;2022-09-21T05:10:03;128.38;;;5.00;;
66012;SDS011;52783;50.502;8.190;2022-09-21T05:12:30;116.28;;;5.47;;
66012;SDS011;52783;50.502;8.190;2022-09-21T05:14:56;136.85;;;4.82;;
66012;SDS011;52783;50.502;8.190;2022-09-21T05:17:22;124.00;;;7.60;;
66012;SDS011;52783;50.502;8.190;2022-09-21T05:19:48;105.25;;;4.47;;
66012;SDS011;52783;50.502;8.190;2022-09-21T05:22:15;49.97;;;3.60;;
66012;SDS011;52783;50.502;8.190;2022-09-21T05:24:41;97.70;;;4.25;;
66012;SDS011;52783;50.502;8.190;2022-09-21T05:27:06;79.65;;;5.25;;
66012;SDS011;52783;50.502;8.190;2022-09-21T05:29:32;125.72;;;9.63;;
66012;SDS011;52783;50.502;8.190;2022-09-21T05:32:03;117.93;;;4.70;;
66012;SDS011;52783;50.502;8.190;2022-09-21T05:34:37;78.03;;;5.00;;
66012;SDS011;52783;50.502;8.190;2022-09-21T05:40:01;72.03;;;4.47;;
66012;SDS011;52783;50.502;8.190;2022-09-21T05:42:27;72.30;;;4.43;;
66012;SDS011;52783;50.502;8.190;2022-09-21T05:44:53;61.83;;;3.17;;
66012;SDS011;52783;50.502;8.190;2022-09-21T05:58:31;47.90;;;3.28;;
66012;SDS011;52783;50.502;8.190;2022-09-21T06:03:49;32.53;;;3.50;;
66012;SDS011;52783;50.502;8.190;2022-09-21T06:06:16;21.63;;;2.83;;
66012;SDS011;52783;50.502;8.190;2022-09-21T06:08:42;21.80;;;2.40;;
66012;SDS011;52783;50.502;8.190;2022-09-21T06:11:07;35.75;;;2.50;;
66012;SDS011;52783;50.502;8.190;2022-09-21T06:13:33;18.70;;;2.38;;
66012;SDS011;52783;50.502;8.190;2022-09-21T06:16:02;38.20;;;2.63;;
66012;SDS011;52783;50.502;8.190;2022-09-21T06:18:28;21.48;;;3.17;;
66012;SDS011;52783;50.502;8.190;2022-09-21T06:20:53;9.88;;;2.65;;
66012;SDS011;52783;50.502;8.190;2022-09-21T06:23:19;21.85;;;3.15;;
66012;SDS011;52783;50.502;8.190;2022-09-21T06:25:49;46.97;;;3.30;;
66012;SDS011;52783;50.502;8.190;2022-09-21T06:28:16;27.67;;;2.90;;
66012;SDS011;52783;50.502;8.190;2022-09-21T06:30:42;37.65;;;2.65;;
66012;SDS011;52783;50.502;8.190;2022-09-21T06:33:08;21.52;;;2.40;;
66012;SDS011;52783;50.502;8.190;2022-09-21T06:35:34;63.47;;;2.78;;
66012;SDS011;52783;50.502;8.190;2022-09-21T06:38:01;51.65;;;3.83;;
66012;SDS011;52783;50.502;8.190;2022-09-21T06:40:31;18.95;;;2.20;;
66012;SDS011;52783;50.502;8.190;2022-09-21T06:42:57;58.38;;;2.88;;
66012;SDS011;52783;50.502;8.190;2022-09-21T06:45:24;112.95;;;4.28;;
66012;SDS011;52783;50.502;8.190;2022-09-21T06:47:50;104.45;;;3.75;;
66012;SDS011;52783;50.502;8.190;2022-09-21T06:50:16;85.05;;;5.68;;
66012;SDS011;52783;50.502;8.190;2022-09-21T06:52:42;82.68;;;3.72;;
66012;SDS011;52783;50.502;8.190;2022-09-21T06:55:07;63.75;;;3.90;;
66012;SDS011;52783;50.502;8.190;2022-09-21T06:57:36;25.92;;;2.58;;
66012;SDS011;52783;50.502;8.190;2022-09-21T07:00:03;60.65;;;6.22;;
66012;SDS011;52783;50.502;8.190;2022-09-21T07:02:29;27.42;;;2.78;;
66012;SDS011;52783;50.502;8.190;2022-09-21T07:04:55;21.75;;;3.33;;
66012;SDS011;52783;50.502;8.190;2022-09-21T07:07:20;27.13;;;3.10;;
66012;SDS011;52783;50.502;8.190;2022-09-21T07:09:46;3.72;;;2.80;;
66012;SDS011;52783;50.502;8.190;2022-09-21T07:12:11;15.77;;;2.60;;
66012;SDS011;52783;50.502;8.190;2022-09-21T07:14:37;18.20;;;2.40;;
66012;SDS011;52783;50.502;8.190;2022-09-21T07:17:03;39.20;;;2.80;;
66012;SDS011;52783;50.502;8.190;2022-09-21T07:19:29;23.38;;;2.65;;
66012;SDS011;52783;50.502;8.190;2022-09-21T07:21:55;11.73;;;2.75;;
66012;SDS011;52783;50.502;8.190;2022-09-21T07:24:20;36.60;;;2.72;;
66012;SDS011;52783;50.502;8.190;2022-09-21T07:26:46;10.82;;;2.53;;
66012;SDS011;52783;50.502;8.190;2022-09-21T07:29:11;33.92;;;2.92;;
66012;SDS011;52783;50.502;8.190;2022-09-21T07:31:37;12.48;;;2.20;;
66012;SDS011;52783;50.502;8.190;2022-09-21T07:34:02;3.80;;;2.30;;
66012;SDS011;52783;50.502;8.190;2022-09-21T07:36:28;7.40;;;2.60;;
66012;SDS011;52783;50.502;8.190;2022-09-21T07:38:53;2.58;;;2.25;;
66012;SDS011;52783;50.502;8.190;2022-09-21T07:41:19;2.33;;;1.80;;
66012;SDS011;52783;50.502;8.190;2022-09-21T07:43:45;2.53;;;2.28;;
66012;SDS011;52783;50.502;8.190;2022-09-21T07:46:12;4.65;;;2.42;;
66012;SDS011;52783;50.502;8.190;2022-09-21T07:48:39;2.60;;;2.08;;
66012;SDS011;52783;50.502;8.190;2022-09-21T07:51:06;5.43;;;2.38;;
66012;SDS011;52783;50.502;8.190;2022-09-21T07:53:34;3.42;;;1.98;;
66012;SDS011;52783;50.502;8.190;2022-09-21T07:56:02;1.77;;;1.67;;
66012;SDS011;52783;50.502;8.190;2022-09-21T07:58:28;2.20;;;2.00;;
66012;SDS011;52783;50.502;8.190;2022-09-21T08:01:12;2.47;;;2.13;;
66012;SDS011;52783;50.502;8.190;2022-09-21T08:03:38;3.28;;;2.15;;
66012;SDS011;52783;50.502;8.190;2022-09-21T08:06:03;2.15;;;1.88;;
66012;SDS011;52783;50.502;8.190;2022-09-21T08:08:29;4.70;;;3.00;;
66012;SDS011;52783;50.502;8.190;2022-09-21T08:10:54;2.53;;;2.33;;
66012;SDS011;52783;50.502;8.190;2022-09-21T08:13:27;6.30;;;2.75;;
66012;SDS011;52783;50.502;8.190;2022-09-21T08:15:56;3.83;;;2.53;;
66012;SDS011;52783;50.502;8.190;2022-09-21T08:18:23;2.80;;;2.40;;
66012;SDS011;52783;50.502;8.190;2022-09-21T08:20:55;5.53;;;2.72;;
66012;SDS011;52783;50.502;8.190;2022-09-21T08:23:22;3.60;;;2.47;;
66012;SDS011;52783;50.502;8.190;2022-09-21T08:25:47;4.47;;;2.67;;
66012;SDS011;52783;50.502;8.190;2022-09-21T08:28:13;3.88;;;2.33;;
66012;SDS011;52783;50.502;8.190;2022-09-21T08:30:39;4.25;;;2.83;;
66012;SDS011;52783;50.502;8.190;2022-09-21T08:33:05;3.03;;;2.67;;
66012;SDS011;52783;50.502;8.190;2022-09-21T08:35:33;3.17;;;2.70;;
66012;SDS011;52783;50.502;8.190;2022-09-21T08:37:58;3.03;;;2.50;;
66012;SDS011;52783;50.502;8.190;2022-09-21T08:40:24;3.50;;;2.33;;
66012;SDS011;52783;50.502;8.190;2022-09-21T08:42:58;4.95;;;2.42;;
66012;SDS011;52783;50.502;8.190;2022-09-21T08:45:33;3.03;;;2.22;;
66012;SDS011;52783;50.502;8.190;2022-09-21T08:48:05;5.95;;;2.22;;
66012;SDS011;52783;50.502;8.190;2022-09-21T08:50:40;5.55;;;2.38;;
66012;SDS011;52783;50.502;8.190;2022-09-21T08:53:12;4.53;;;2.20;;
66012;SDS011;52783;50.502;8.190;2022-09-21T08:55:42;6.72;;;2.13;;
66012;SDS011;52783;50.502;8.190;2022-09-21T08:58:24;5.40;;;2.42;;
66012;SDS011;52783;50.502;8.190;2022-09-21T09:10:05;4.97;;;1.70;;
66012;SDS011;52783;50.502;8.190;2022-09-21T09:13:06;7.35;;;2.10;;
66012;SDS011;52783;50.502;8.190;2022-09-21T09:15:44;4.68;;;1.90;;
66012;SDS011;52783;50.502;8.190;2022-09-21T09:18:35;7.80;;;1.80;;
66012;SDS011;52783;50.502;8.190;2022-09-21T09:21:10;2.40;;;1.35;;
66012;SDS011;52783;50.502;8.190;2022-09-21T09:23:42;3.38;;;1.50;;
66012;SDS011;52783;50.502;8.190;2022-09-21T09:26:34;5.03;;;1.70;;
66012;SDS011;52783;50.502;8.190;2022-09-21T09:29:15;4.45;;;1.70;;
66012;SDS011;52783;50.502;8.190;2022-09-21T09:32:02;3.30;;;1.15;;
66012;SDS011;52783;50.502;8.190;2022-09-21T09:34:35;5.35;;;1.65;;
66012;SDS011;52783;50.502;8.190;2022-09-21T09:37:16;8.93;;;1.58;;
66012;SDS011;52783;50.502;8.190;2022-09-21T09:39:47;5.40;;;1.27;;
66012;SDS011;52783;50.502;8.190;2022-09-21T09:45:30;4.22;;;1.48;;
66012;SDS011;52783;50.502;8.190;2022-09-21T09:48:25;6.70;;;1.42;;
66012;SDS011;52783;50.502;8.190;2022-09-21T09:50:57;2.28;;;1.10;;
66012;SDS011;52783;50.502;8.190;2022-09-21T09:53:23;3.25;;;1.17;;
66012;SDS011;52783;50.502;8.190;2022-09-21T09:55:52;4.00;;;1.40;;
66012;SDS011;52783;50.502;8.190;2022-09-21T10:00:48;8.00;;;1.70;;
66012;SDS011;52783;50.502;8.190;2022-09-21T10:03:17;5.32;;;1.40;;
66012;SDS011;52783;50.502;8.190;2022-09-21T10:05:49;3.30;;;1.20;;
66012;SDS011;52783;50.502;8.190;2022-09-21T10:08:29;2.88;;;1.10;;
66012;SDS011;52783;50.502;8.190;2022-09-21T10:10:55;3.05;;;1.23;;
66012;SDS011;52783;50.502;8.190;2022-09-21T10:13:28;3.78;;;1.40;;
66012;SDS011;52783;50.502;8.190;2022-09-21T10:16:14;1.73;;;1.10;;
66012;SDS011;52783;50.502;8.190;2022-09-21T10:21:15;4.10;;;1.23;;
66012;SDS011;52783;50.502;8.190;2022-09-21T10:23:45;1.45;;;0.85;;
66012;SDS011;52783;50.502;8.190;2022-09-21T10:26:13;1.55;;;0.93;;
66012;SDS011;52783;50.502;8.190;2022-09-21T10:28:59;3.72;;;0.88;;
66012;SDS011;52783;50.502;8.190;2022-09-21T10:31:28;2.47;;;1.13;;
66012;SDS011;52783;50.502;8.190;2022-09-21T10:34:13;5.63;;;1.27;;
66012;SDS011;52783;50.502;8.190;2022-09-21T10:36:39;1.65;;;1.08;;
66012;SDS011;52783;50.502;8.190;2022-09-21T10:39:31;2.70;;;1.05;;
66012;SDS011;52783;50.502;8.190;2022-09-21T10:44:39;2.75;;;1.58;;
66012;SDS011;52783;50.502;8.190;2022-09-21T10:49:53;1.23;;;0.73;;
66012;SDS011;52783;50.502;8.190;2022-09-21T10:52:24;4.53;;;0.95;;
66012;SDS011;52783;50.502;8.190;2022-09-21T10:54:58;3.17;;;1.05;;
66012;SDS011;52783;50.502;8.190;2022-09-21T10:57:24;4.90;;;0.93;;
66012;SDS011;52783;50.502;8.190;2022-09-21T10:59:52;2.03;;;0.95;;
66012;SDS011;52783;50.502;8.190;2022-09-21T11:02:25;1.55;;;0.95;;
66012;SDS011;52783;50.502;8.190;2022-09-21T11:07:48;2.40;;;0.85;;
66012;SDS011;52783;50.502;8.190;2022-09-21T11:13:30;3.50;;;0.80;;
66012;SDS011;52783;50.502;8.190;2022-09-21T11:16:03;0.93;;;0.73;;
66012;SDS011;52783;50.502;8.190;2022-09-21T11:26:36;3.15;;;1.38;;
66012;SDS011;52783;50.502;8.190;2022-09-21T11:29:26;1.92;;;0.93;;
66012;SDS011;52783;50.502;8.190;2022-09-21T11:38:15;1.15;;;0.85;;
66012;SDS011;52783;50.502;8.190;2022-09-21T11:43:48;2.42;;;0.73;;
66012;SDS011;52783;50.502;8.190;2022-09-21T11:49:21;6.32;;;0.90;;
66012;SDS011;52783;50.502;8.190;2022-09-21T11:54:51;1.40;;;0.85;;
66012;SDS011;52783;50.502;8.190;2022-09-21T11:57:32;2.80;;;0.85;;
66012;SDS011;52783;50.502;8.190;2022-09-21T12:00:32;2.13;;;1.00;;
66012;SDS011;52783;50.502;8.190;2022-09-21T12:06:09;2.75;;;0.85;;
66012;SDS011;52783;50.502;8.190;2022-09-21T12:12:05;1.70;;;1.08;;
66012;SDS011;52783;50.502;8.190;2022-09-21T12:14:43;0.85;;;0.82;;
66012;SDS011;52783;50.502;8.190;2022-09-21T12:17:56;0.50;;;0.43;;
66012;SDS011;52783;50.502;8.190;2022-09-21T12:23:03;3.07;;;0.73;;
66012;SDS011;52783;50.502;8.190;2022-09-21T12:25:37;1.95;;;1.02;;
66012;SDS011;52783;50.502;8.190;2022-09-21T12:30:38;1.13;;;0.93;;
66012;SDS011;52783;50.502;8.190;2022-09-21T12:33:10;3.47;;;1.00;;
66012;SDS011;52783;50.502;8.190;2022-09-21T12:35:45;2.42;;;1.15;;
66012;SDS011;52783;50.502;8.190;2022-09-21T12:41:26;4.07;;;1.25;;
66012;SDS011;52783;50.502;8.190;2022-09-21T12:46:56;1.02;;;0.82;;
66012;SDS011;52783;50.502;8.190;2022-09-21T12:49:35;1.80;;;1.20;;
66012;SDS011;52783;50.502;8.190;2022-09-21T12:52:07;1.98;;;1.05;;
66012;SDS011;52783;50.502;8.190;2022-09-21T12:54:49;3.05;;;1.23;;
66012;SDS011;52783;50.502;8.190;2022-09-21T12:57:44;5.10;;;0.90;;
66012;SDS011;52783;50.502;8.190;2022-09-21T13:08:08;2.90;;;2.40;;
66012;SDS011;52783;50.502;8.190;2022-09-21T13:10:44;2.60;;;1.25;;
66012;SDS011;52783;50.502;8.190;2022-09-21T13:13:25;5.68;;;3.10;;
66012;SDS011;52783;50.502;8.190;2022-09-21T13:15:52;10.38;;;7.82;;
66012;SDS011;52783;50.502;8.190;2022-09-21T13:18:19;8.73;;;5.40;;
66012;SDS011;52783;50.502;8.190;2022-09-21T13:20:48;6.22;;;5.00;;
66012;SDS011;52783;50.502;8.190;2022-09-21T13:23:17;3.65;;;3.13;;
66012;SDS011;52783;50.502;8.190;2022-09-21T13:25:49;4.43;;;3.33;;
66012;SDS011;52783;50.502;8.190;2022-09-21T13:28:58;1.25;;;1.15;;
66012;SDS011;52783;50.502;8.190;2022-09-21T13:34:39;2.10;;;0.70;;
66012;SDS011;52783;50.502;8.190;2022-09-21T13:39:48;6.07;;;3.08;;
66012;SDS011;52783;50.502;8.190;2022-09-21T13:45:41;1.40;;;0.75;;
66012;SDS011;52783;50.502;8.190;2022-09-21T13:47:51;1.20;;;1.00;;
66012;SDS011;52783;50.502;8.190;2022-09-21T13:50:26;1.33;;;0.80;;
66012;SDS011;52783;50.502;8.190;2022-09-21T13:55:33;1.00;;;0.68;;
66012;SDS011;52783;50.502;8.190;2022-09-21T13:58:24;0.80;;;0.80;;
66012;SDS011;52783;50.502;8.190;2022-09-21T14:00:54;2.72;;;0.82;;
66012;SDS011;52783;50.502;8.190;2022-09-21T14:03:27;1.15;;;0.80;;
66012;SDS011;52783;50.502;8.190;2022-09-21T14:08:36;2.80;;;1.45;;
66012;SDS011;52783;50.502;8.190;2022-09-21T14:11:35;3.00;;;1.10;;
66012;SDS011;52783;50.502;8.190;2022-09-21T14:14:14;4.80;;;1.02;;
66012;SDS011;52783;50.502;8.190;2022-09-21T14:16:50;1.80;;;1.10;;
66012;SDS011;52783;50.502;8.190;2022-09-21T14:24:36;2.10;;;0.85;;
66012;SDS011;52783;50.502;8.190;2022-09-21T14:27:14;1.55;;;0.80;;
66012;SDS011;52783;50.502;8.190;2022-09-21T14:32:51;4.57;;;0.85;;
66012;SDS011;52783;50.502;8.190;2022-09-21T14:35:24;2.70;;;1.30;;
66012;SDS011;52783;50.502;8.190;2022-09-21T14:37:55;3.17;;;1.13;;
66012;SDS011;52783;50.502;8.190;2022-09-21T14:40:28;1.27;;;1.15;;
66012;SDS011;52783;50.502;8.190;2022-09-21T14:43:05;1.75;;;1.08;;
66012;SDS011;52783;50.502;8.190;2022-09-21T14:54:41;1.35;;;0.80;;
66012;SDS011;52783;50.502;8.190;2022-09-21T14:57:49;2.25;;;0.90;;
66012;SDS011;52783;50.502;8.190;2022-09-21T15:00:41;4.40;;;1.30;;
66012;SDS011;52783;50.502;8.190;2022-09-21T15:03:32;1.17;;;0.90;;
66012;SDS011;52783;50.502;8.190;2022-09-21T15:09:44;2.33;;;1.00;;
66012;SDS011;52783;50.502;8.190;2022-09-21T15:12:57;1.85;;;0.80;;
66012;SDS011;52783;50.502;8.190;2022-09-21T15:18:32;3.15;;;1.13;;
66012;SDS011;52783;50.502;8.190;2022-09-21T15:21:03;1.58;;;1.13;;
66012;SDS011;52783;50.502;8.190;2022-09-21T15:23:33;1.75;;;1.02;;
66012;SDS011;52783;50.502;8.190;2022-09-21T15:26:09;1.70;;;0.95;;
66012;SDS011;52783;50.502;8.190;2022-09-21T15:28:42;1.13;;;1.00;;
66012;SDS011;52783;50.502;8.190;2022-09-21T15:31:13;2.38;;;1.10;;
66012;SDS011;52783;50.502;8.190;2022-09-21T15:33:39;1.20;;;1.00;;
66012;SDS011;52783;50.502;8.190;2022-09-21T15:36:06;2.72;;;1.23;;
66012;SDS011;52783;50.502;8.190;2022-09-21T15:38:34;1.48;;;1.20;;
66012;SDS011;52783;50.502;8.190;2022-09-21T15:41:00;2.40;;;1.02;;
66012;SDS011;52783;50.502;8.190;2022-09-21T15:43:27;1.13;;;0.70;;
66012;SDS011;52783;50.502;8.190;2022-09-21T15:45:57;1.58;;;0.80;;
66012;SDS011;52783;50.502;8.190;2022-09-21T15:48:29;1.35;;;1.00;;
66012;SDS011;52783;50.502;8.190;2022-09-21T15:53:56;1.42;;;1.10;;
66012;SDS011;52783;50.502;8.190;2022-09-21T15:56:30;0.85;;;0.85;;
66012;SDS011;52783;50.502;8.190;2022-09-21T15:59:04;2.38;;;1.30;;
66012;SDS011;52783;50.502;8.190;2022-09-21T16:01:39;3.33;;;1.48;;
66012;SDS011;52783;50.502;8.190;2022-09-21T16:04:15;1.90;;;1.25;;
66012;SDS011;52783;50.502;8.190;2022-09-21T16:06:44;2.20;;;1.77;;
66012;SDS011;52783;50.502;8.190;2022-09-21T16:09:37;1.05;;;1.05;;
66012;SDS011;52783;50.502;8.190;2022-09-21T16:12:49;3.97;;;1.42;;
66012;SDS011;52783;50.502;8.190;2022-09-21T16:14:58;1.85;;;1.13;;
66012;SDS011;52783;50.502;8.190;2022-09-21T16:17:28;1.38;;;1.05;;
66012;SDS011;52783;50.502;8.190;2022-09-21T16:22:39;2.60;;;1.30;;
66012;SDS011;52783;50.502;8.190;2022-09-21T16:27:51;0.90;;;0.90;;
66012;SDS011;52783;50.502;8.190;2022-09-21T16:31:04;2.25;;;0.57;;
66012;SDS011;52783;50.502;8.190;2022-09-21T16:33:32;3.60;;;1.10;;
66012;SDS011;52783;50.502;8.190;2022-09-21T16:39:09;1.50;;;0.85;;
66012;SDS011;52783;50.502;8.190;2022-09-21T16:41:37;0.60;;;0.52;;
66012;SDS011;52783;50.502;8.190;2022-09-21T16:44:08;2.65;;;0.80;;
66012;SDS011;52783;50.502;8.190;2022-09-21T16:46:44;1.27;;;1.17;;
66012;SDS011;52783;50.502;8.190;2022-09-21T16:49:36;1.13;;;0.82;;
66012;SDS011;52783;50.502;8.190;2022-09-21T16:52:02;1.75;;;0.80;;
66012;SDS011;52783;50.502;8.190;2022-09-21T16:54:27;2.05;;;1.00;;
66012;SDS011;52783;50.502;8.190;2022-09-21T16:56:54;6.85;;;1.30;;
66012;SDS011;52783;50.502;8.190;2022-09-21T16:59:22;1.92;;;0.95;;
66012;SDS011;52783;50.502;8.190;2022-09-21T17:01:49;2.60;;;1.10;;
66012;SDS011;52783;50.502;8.190;2022-09-21T17:04:17;4.93;;;1.20;;
66012;SDS011;52783;50.502;8.190;2022-09-21T17:06:50;1.23;;;0.80;;
66012;SDS011;52783;50.502;8.190;2022-09-21T17:09:18;1.23;;;0.95;;
66012;SDS011;52783;50.502;8.190;2022-09-21T17:11:45;0.50;;;0.50;;
66012;SDS011;52783;50.502;8.190;2022-09-21T17:14:12;1.55;;;1.00;;
66012;SDS011;52783;50.502;8.190;2022-09-21T17:16:43;1.70;;;1.13;;
66012;SDS011;52783;50.502;8.190;2022-09-21T17:19:20;4.22;;;1.33;;
66012;SDS011;52783;50.502;8.190;2022-09-21T17:21:46;4.85;;;0.90;;
66012;SDS011;52783;50.502;8.190;2022-09-21T17:24:12;1.25;;;0.80;;
66012;SDS011;52783;50.502;8.190;2022-09-21T17:29:17;2.70;;;0.95;;
66012;SDS011;52783;50.502;8.190;2022-09-21T17:31:48;5.63;;;1.70;;
66012;SDS011;52783;50.502;8.190;2022-09-21T17:34:17;1.83;;;1.45;;
66012;SDS011;52783;50.502;8.190;2022-09-21T17:36:44;2.72;;;1.50;;
66012;SDS011;52783;50.502;8.190;2022-09-21T17:39:11;3.03;;;1.98;;
66012;SDS011;52783;50.502;8.190;2022-09-21T17:41:40;3.92;;;1.70;;
66012;SDS011;52783;50.502;8.190;2022-09-21T17:44:18;2.15;;;1.40;;
66012;SDS011;52783;50.502;8.190;2022-09-21T17:47:27;1.52;;;1.33;;
66012;SDS011;52783;50.502;8.190;2022-09-21T17:49:58;5.13;;;1.45;;
66012;SDS011;52783;50.502;8.190;2022-09-21T17:52:41;3.78;;;1.70;;
66012;SDS011;52783;50.502;8.190;2022-09-21T17:55:26;6.03;;;2.38;;
66012;SDS011;52783;50.502;8.190;2022-09-21T17:58:04;10.10;;;3.63;;
66012;SDS011;52783;50.502;8.190;2022-09-21T18:00:46;6.00;;;2.90;;
66012;SDS011;52783;50.502;8.190;2022-09-21T18:03:32;6.88;;;3.17;;
66012;SDS011;52783;50.502;8.190;2022-09-21T18:06:05;11.02;;;4.63;;
66012;SDS011;52783;50.502;8.190;2022-09-21T18:08:32;5.93;;;3.90;;
66012;SDS011;52783;50.502;8.190;2022-09-21T18:16:44;6.53;;;4.32;;